createdAt,value
2019-03-31T00:01:18.756Z,7.73
2019-03-31T00:03:47.016Z,6.63
2019-03-31T00:06:15.275Z,7.20
2019-03-31T00:08:43.558Z,7.57
2019-03-31T00:11:11.981Z,7.10
2019-03-31T00:13:40.238Z,7.20
2019-03-31T00:16:08.510Z,6.20
2019-03-31T00:18:36.797Z,6.53
2019-03-31T00:21:05.135Z,6.60
2019-03-31T00:23:33.392Z,5.57
2019-03-31T00:26:01.656Z,6.60
2019-03-31T00:28:29.950Z,6.20
2019-03-31T00:30:58.215Z,6.50
2019-03-31T00:33:26.502Z,6.30
2019-03-31T00:35:54.871Z,6.13
2019-03-31T00:38:23.140Z,5.97
2019-03-31T00:40:51.386Z,6.60
2019-03-31T00:43:19.760Z,6.00
2019-03-31T00:45:48.031Z,8.40
2019-03-31T00:48:16.299Z,6.10
2019-03-31T00:50:44.572Z,8.10
2019-03-31T00:53:13.873Z,7.07
2019-03-31T00:55:42.158Z,7.70
2019-03-31T00:58:10.409Z,6.80
2019-03-31T01:00:46.311Z,6.03
2019-03-31T01:03:15.126Z,8.93
2019-03-31T01:05:44.166Z,7.37
2019-03-31T01:08:13.028Z,6.97
2019-03-31T01:10:42.620Z,5.50
2019-03-31T01:13:11.269Z,7.30
2019-03-31T01:15:39.622Z,6.20
2019-03-31T01:18:08.665Z,6.00
2019-03-31T01:20:36.924Z,6.07
2019-03-31T01:23:05.577Z,6.93
2019-03-31T01:25:33.847Z,7.00
2019-03-31T01:28:02.121Z,6.93
2019-03-31T01:30:30.376Z,5.80
2019-03-31T01:32:58.920Z,5.80
2019-03-31T01:35:27.237Z,7.57
2019-03-31T01:37:55.741Z,6.57
2019-03-31T01:40:24.013Z,6.33
2019-03-31T01:42:52.278Z,6.27
2019-03-31T01:45:20.698Z,6.57
2019-03-31T01:47:48.986Z,11.73
2019-03-31T01:50:17.307Z,6.17
2019-03-31T01:52:45.586Z,6.87
2019-03-31T01:55:13.877Z,11.00
2019-03-31T01:57:42.120Z,6.63
2019-03-31T02:00:12.471Z,5.90
2019-03-31T02:02:40.739Z,7.70
2019-03-31T02:05:09.092Z,6.67
2019-03-31T02:07:37.408Z,5.90
2019-03-31T02:10:06.770Z,6.10
2019-03-31T02:12:35.041Z,5.67
2019-03-31T02:15:05.543Z,6.00
2019-03-31T02:17:33.807Z,8.50
2019-03-31T02:20:02.072Z,6.60
2019-03-31T02:22:30.352Z,7.10
2019-03-31T02:24:58.611Z,8.03
2019-03-31T02:27:26.942Z,6.13
2019-03-31T02:29:55.207Z,6.43
2019-03-31T02:32:24.797Z,6.80
2019-03-31T02:34:53.411Z,6.70
2019-03-31T02:37:21.665Z,6.47
2019-03-31T02:39:49.930Z,6.07
2019-03-31T02:42:18.202Z,7.10
2019-03-31T02:44:46.457Z,6.37
2019-03-31T02:47:14.764Z,5.77
2019-03-31T02:49:42.984Z,6.00
2019-03-31T02:52:11.429Z,6.73
2019-03-31T02:54:39.781Z,6.77
2019-03-31T02:57:08.313Z,7.97
2019-03-31T02:59:36.935Z,6.60
2019-03-31T03:02:05.198Z,6.47
2019-03-31T03:04:34.131Z,7.40
2019-03-31T03:07:03.857Z,6.33
2019-03-31T03:09:32.976Z,6.73
2019-03-31T03:12:01.616Z,6.50
2019-03-31T03:14:33.082Z,8.17
2019-03-31T03:17:01.356Z,6.87
2019-03-31T03:19:29.624Z,6.97
2019-03-31T03:21:57.895Z,6.90
2019-03-31T03:24:26.150Z,6.30
2019-03-31T03:26:54.419Z,10.93
2019-03-31T03:29:22.689Z,7.87
2019-03-31T03:31:51.193Z,7.23
2019-03-31T03:34:19.492Z,6.67
2019-03-31T03:36:47.741Z,6.33
2019-03-31T03:39:15.999Z,6.50
2019-03-31T03:41:44.391Z,7.30
2019-03-31T03:44:12.652Z,6.97
2019-03-31T03:46:40.920Z,7.30
2019-03-31T03:49:09.335Z,8.43
2019-03-31T03:51:37.710Z,6.77
2019-03-31T03:54:06.047Z,7.50
2019-03-31T03:56:34.297Z,7.83
2019-03-31T03:59:02.562Z,8.80
2019-03-31T04:01:31.880Z,7.70
2019-03-31T04:04:00.153Z,7.17
2019-03-31T04:06:28.412Z,7.80
2019-03-31T04:08:56.667Z,7.87
2019-03-31T04:11:25.266Z,8.53
2019-03-31T04:13:53.590Z,7.40
2019-03-31T04:16:21.916Z,8.63
2019-03-31T04:18:50.169Z,8.80
2019-03-31T04:21:18.442Z,8.30
2019-03-31T04:23:46.709Z,8.30
2019-03-31T04:26:15.044Z,8.10
2019-03-31T04:28:43.373Z,7.80
2019-03-31T04:31:11.618Z,8.60
2019-03-31T04:33:50.714Z,7.97
2019-03-31T04:36:09.859Z,8.10
2019-03-31T04:38:38.124Z,9.53
2019-03-31T04:41:06.391Z,7.87
2019-03-31T04:43:34.780Z,8.77
2019-03-31T04:46:03.040Z,8.00
2019-03-31T04:48:31.302Z,8.23
2019-03-31T04:50:59.565Z,8.67
2019-03-31T04:53:27.808Z,9.10
2019-03-31T04:55:56.062Z,8.57
2019-03-31T04:58:24.325Z,7.27
2019-03-31T05:00:52.574Z,8.00
2019-03-31T05:03:20.822Z,8.60
2019-03-31T05:05:49.100Z,8.60
2019-03-31T05:08:17.352Z,8.10
2019-03-31T05:10:45.616Z,8.10
2019-03-31T05:13:13.872Z,7.57
2019-03-31T05:15:42.126Z,8.83
2019-03-31T05:18:10.395Z,8.40
2019-03-31T05:20:38.659Z,7.57
2019-03-31T05:23:06.932Z,8.20
2019-03-31T05:25:35.177Z,7.93
2019-03-31T05:28:03.435Z,8.30
2019-03-31T05:30:31.690Z,8.83
2019-03-31T05:33:00.430Z,8.43
2019-03-31T05:35:28.683Z,8.90
2019-03-31T05:37:56.994Z,7.80
2019-03-31T05:40:25.256Z,8.20
2019-03-31T05:42:53.528Z,9.03
2019-03-31T05:45:21.792Z,8.27
2019-03-31T05:47:50.040Z,9.00
2019-03-31T05:50:18.340Z,8.60
2019-03-31T05:52:46.593Z,8.53
2019-03-31T05:55:14.860Z,9.27
2019-03-31T05:57:43.112Z,8.80
2019-03-31T06:00:11.363Z,11.43
2019-03-31T06:02:39.644Z,9.13
2019-03-31T06:05:07.898Z,8.97
2019-03-31T06:07:36.168Z,8.10
2019-03-31T06:10:06.480Z,8.97
2019-03-31T06:12:34.798Z,8.40
2019-03-31T06:15:03.128Z,9.77
2019-03-31T06:17:31.377Z,9.40
2019-03-31T06:19:59.664Z,9.50
2019-03-31T06:22:27.944Z,9.30
2019-03-31T06:24:56.213Z,9.30
2019-03-31T06:27:24.470Z,13.97
2019-03-31T06:29:52.744Z,8.90
2019-03-31T06:32:21.012Z,9.67
2019-03-31T06:34:49.281Z,9.07
2019-03-31T06:37:17.552Z,9.27
2019-03-31T06:39:45.809Z,9.63
2019-03-31T06:42:14.066Z,9.90
2019-03-31T06:44:42.333Z,9.93
2019-03-31T06:47:10.609Z,9.70
2019-03-31T06:49:38.873Z,9.70
2019-03-31T06:52:07.122Z,9.10
2019-03-31T06:54:35.402Z,10.50
2019-03-31T06:57:03.663Z,10.33
2019-03-31T06:59:31.911Z,9.83
2019-03-31T07:02:03.020Z,11.03
2019-03-31T07:04:30.173Z,11.20
2019-03-31T07:06:58.431Z,12.27
2019-03-31T07:09:26.915Z,11.43
2019-03-31T07:11:55.199Z,11.37
2019-03-31T07:14:23.488Z,10.37
2019-03-31T07:16:51.745Z,11.63
2019-03-31T07:19:20.023Z,11.00
2019-03-31T07:21:48.282Z,10.33
2019-03-31T07:24:16.549Z,10.50
2019-03-31T07:26:44.838Z,11.00
2019-03-31T07:29:13.104Z,11.50
2019-03-31T07:31:41.403Z,10.97
2019-03-31T07:34:09.665Z,10.30
2019-03-31T07:36:37.932Z,11.43
2019-03-31T07:39:06.905Z,14.37
2019-03-31T07:41:36.216Z,11.80
2019-03-31T07:44:04.500Z,12.50
2019-03-31T07:46:32.769Z,11.40
2019-03-31T07:49:01.048Z,11.67
2019-03-31T07:51:29.327Z,11.87
2019-03-31T07:53:57.626Z,10.77
2019-03-31T07:56:25.911Z,11.40
2019-03-31T07:58:54.218Z,10.40
2019-03-31T08:01:22.445Z,11.03
2019-03-31T08:03:50.708Z,11.20
2019-03-31T08:06:18.983Z,10.80
2019-03-31T08:08:47.239Z,11.63
2019-03-31T08:11:17.071Z,10.23
2019-03-31T08:13:45.588Z,10.10
2019-03-31T08:16:13.858Z,10.10
2019-03-31T08:18:42.128Z,9.80
2019-03-31T08:21:10.393Z,10.67
2019-03-31T08:23:38.669Z,9.13
2019-03-31T08:26:06.933Z,10.50
2019-03-31T08:28:35.199Z,10.30
2019-03-31T08:31:03.474Z,9.73
2019-03-31T08:33:31.725Z,10.50
2019-03-31T08:36:00.013Z,10.37
2019-03-31T08:38:28.280Z,11.60
2019-03-31T08:40:56.538Z,10.87
2019-03-31T08:43:24.869Z,9.50
2019-03-31T08:45:53.124Z,9.97
2019-03-31T08:48:21.399Z,10.17
2019-03-31T08:50:49.678Z,10.93
2019-03-31T08:53:17.945Z,12.40
2019-03-31T08:55:46.268Z,11.10
2019-03-31T08:58:14.504Z,12.27
2019-03-31T09:00:44.411Z,13.67
2019-03-31T09:03:12.681Z,11.33
2019-03-31T09:05:41.229Z,11.87
2019-03-31T09:08:09.471Z,11.73
2019-03-31T09:10:37.739Z,11.73
2019-03-31T09:13:06.109Z,11.37
2019-03-31T09:15:34.370Z,12.83
2019-03-31T09:18:02.629Z,10.87
2019-03-31T09:20:30.917Z,10.83
2019-03-31T09:22:59.183Z,10.83
2019-03-31T09:25:27.446Z,11.50
2019-03-31T09:27:55.741Z,11.03
2019-03-31T09:30:24.020Z,11.30
2019-03-31T09:32:52.288Z,11.30
2019-03-31T09:35:20.558Z,11.67
2019-03-31T09:37:48.847Z,11.50
2019-03-31T09:40:17.976Z,11.57
2019-03-31T09:42:46.234Z,11.57
2019-03-31T09:45:14.881Z,12.97
2019-03-31T09:47:43.163Z,12.13
2019-03-31T09:50:16.985Z,12.70
2019-03-31T09:52:43.758Z,12.83
2019-03-31T09:55:12.096Z,12.87
2019-03-31T09:57:40.370Z,10.63
2019-03-31T10:00:11.147Z,11.73
2019-03-31T10:02:39.541Z,12.60
2019-03-31T10:05:07.942Z,12.70
2019-03-31T10:07:36.314Z,12.47
2019-03-31T10:10:10.847Z,13.00
2019-03-31T10:12:39.106Z,11.90
2019-03-31T10:15:08.828Z,12.63
2019-03-31T10:17:37.103Z,11.53
2019-03-31T10:20:06.826Z,12.83
2019-03-31T10:22:35.092Z,12.27
2019-03-31T10:25:04.615Z,13.07
2019-03-31T10:27:32.895Z,13.83
2019-03-31T10:30:01.178Z,13.27
2019-03-31T10:32:29.453Z,14.73
2019-03-31T10:34:57.741Z,12.97
2019-03-31T10:37:27.543Z,12.37
2019-03-31T10:39:55.821Z,12.87
2019-03-31T10:42:24.106Z,12.83
2019-03-31T10:44:52.398Z,12.30
2019-03-31T10:47:20.665Z,14.13
2019-03-31T10:49:48.955Z,13.50
2019-03-31T10:52:17.211Z,13.60
2019-03-31T10:54:45.474Z,12.63
2019-03-31T10:57:13.782Z,12.20
2019-03-31T10:59:42.070Z,14.50
2019-03-31T11:02:10.360Z,12.90
2019-03-31T11:04:38.644Z,12.83
2019-03-31T11:07:06.942Z,12.40
2019-03-31T11:09:35.228Z,12.53
2019-03-31T11:12:03.511Z,13.03
2019-03-31T11:14:31.812Z,12.13
2019-03-31T11:17:00.090Z,12.60
2019-03-31T11:19:28.349Z,11.90
2019-03-31T11:22:01.218Z,10.73
2019-03-31T11:24:29.524Z,12.73
2019-03-31T11:26:57.779Z,12.80
2019-03-31T11:29:26.057Z,13.93
2019-03-31T11:31:54.332Z,12.53
2019-03-31T11:34:22.601Z,12.60
2019-03-31T11:36:50.891Z,11.93
2019-03-31T11:39:19.183Z,12.30
2019-03-31T11:41:47.455Z,14.07
2019-03-31T11:44:15.792Z,12.60
2019-03-31T11:46:44.094Z,12.73
2019-03-31T11:49:12.394Z,13.80
2019-03-31T11:51:40.679Z,13.83
2019-03-31T11:54:08.955Z,12.33
2019-03-31T11:56:37.235Z,12.13
2019-03-31T11:59:05.532Z,12.90
2019-03-31T12:01:33.810Z,11.67
2019-03-31T12:04:02.079Z,11.40
2019-03-31T12:06:30.347Z,11.67
2019-03-31T12:08:58.625Z,12.50
2019-03-31T12:11:26.993Z,12.10
2019-03-31T12:13:56.211Z,12.23
2019-03-31T12:16:27.613Z,18.00
2019-03-31T12:18:56.007Z,12.50
2019-03-31T12:21:24.360Z,12.77
2019-03-31T12:23:52.641Z,13.07
2019-03-31T12:26:20.924Z,12.30
2019-03-31T12:28:49.203Z,13.27
2019-03-31T12:31:17.494Z,11.30
2019-03-31T12:33:45.771Z,13.20
2019-03-31T12:36:14.175Z,12.97
2019-03-31T12:38:42.481Z,11.30
2019-03-31T12:41:10.734Z,10.23
2019-03-31T12:43:39.076Z,11.70
2019-03-31T12:46:07.380Z,10.93
2019-03-31T12:48:35.637Z,10.17
2019-03-31T12:51:04.023Z,8.70
2019-03-31T12:53:32.279Z,7.80
2019-03-31T12:56:00.802Z,8.83
2019-03-31T12:58:29.187Z,10.47
2019-03-31T13:00:57.531Z,9.23
2019-03-31T13:03:25.813Z,7.73
2019-03-31T13:05:54.074Z,8.30
2019-03-31T13:08:22.331Z,9.47
2019-03-31T13:10:50.685Z,8.17
2019-03-31T13:13:18.951Z,8.17
2019-03-31T13:15:47.231Z,8.07
2019-03-31T13:18:15.534Z,8.50
2019-03-31T13:20:43.898Z,8.10
2019-03-31T13:23:12.167Z,8.07
2019-03-31T13:25:40.465Z,8.00
2019-03-31T13:28:08.713Z,8.93
2019-03-31T13:30:36.980Z,8.93
2019-03-31T13:33:05.317Z,8.93
2019-03-31T13:35:33.673Z,8.70
2019-03-31T13:38:11.020Z,9.27
2019-03-31T13:40:31.926Z,8.63
2019-03-31T13:43:00.318Z,10.40
2019-03-31T13:45:28.589Z,8.57
2019-03-31T13:47:58.684Z,8.50
2019-03-31T13:50:26.835Z,8.90
2019-03-31T13:52:55.085Z,8.93
2019-03-31T13:55:23.377Z,7.57
2019-03-31T13:57:52.774Z,8.80
2019-03-31T14:00:36.023Z,7.70
2019-03-31T14:03:04.515Z,7.43
2019-03-31T14:05:32.778Z,7.00
2019-03-31T14:08:01.042Z,8.00
2019-03-31T14:10:29.382Z,7.93
2019-03-31T14:12:57.650Z,7.97
2019-03-31T14:15:25.918Z,8.30
2019-03-31T14:17:54.214Z,6.27
2019-03-31T14:20:22.530Z,7.80
2019-03-31T14:22:51.079Z,6.33
2019-03-31T14:25:19.382Z,7.10
2019-03-31T14:27:48.622Z,7.73
2019-03-31T14:30:19.335Z,6.63
2019-03-31T14:32:47.682Z,6.60
2019-03-31T14:35:16.028Z,7.53
2019-03-31T14:37:44.305Z,8.33
2019-03-31T14:40:12.569Z,6.50
2019-03-31T14:42:40.859Z,7.13
2019-03-31T14:45:10.828Z,6.43
2019-03-31T14:47:39.124Z,6.57
2019-03-31T14:50:07.466Z,7.27
2019-03-31T14:52:35.749Z,7.63
2019-03-31T14:55:04.764Z,6.12
2019-03-31T14:57:33.031Z,6.33
2019-03-31T15:00:13.967Z,5.67
2019-03-31T15:02:31.307Z,6.40
2019-03-31T15:04:59.574Z,6.57
2019-03-31T15:07:27.891Z,7.30
2019-03-31T15:09:56.132Z,7.73
2019-03-31T15:12:24.406Z,8.37
2019-03-31T15:14:52.680Z,9.30
2019-03-31T15:17:20.961Z,9.87
2019-03-31T15:19:49.245Z,9.70
2019-03-31T15:22:17.492Z,9.30
2019-03-31T15:24:45.770Z,10.67
2019-03-31T15:27:14.053Z,9.40
2019-03-31T15:29:42.391Z,10.10
2019-03-31T15:32:10.681Z,10.87
2019-03-31T15:34:38.951Z,16.97
2019-03-31T15:37:07.220Z,20.60
2019-03-31T15:39:35.491Z,21.80
2019-03-31T15:42:03.783Z,21.80
2019-03-31T15:44:32.046Z,21.57
2019-03-31T15:47:00.325Z,21.83
2019-03-31T15:49:28.605Z,27.20
2019-03-31T15:51:56.877Z,32.07
2019-03-31T15:54:25.172Z,33.93
2019-03-31T15:56:53.472Z,32.80
2019-03-31T15:59:21.763Z,33.73
2019-03-31T16:01:50.047Z,36.67
2019-03-31T16:04:18.335Z,34.57
2019-03-31T16:06:46.685Z,34.40
2019-03-31T16:09:23.362Z,36.87
2019-03-31T16:11:53.757Z,36.33
2019-03-31T16:14:14.986Z,37.77
2019-03-31T16:16:43.277Z,40.63
2019-03-31T16:19:11.569Z,38.57
2019-03-31T16:21:39.892Z,38.93
2019-03-31T16:24:08.104Z,39.23
2019-03-31T16:26:36.512Z,39.17
2019-03-31T16:29:04.882Z,39.87
2019-03-31T16:31:33.174Z,39.70
2019-03-31T16:34:01.440Z,36.93
2019-03-31T16:36:29.714Z,39.87
2019-03-31T16:38:57.991Z,38.87
2019-03-31T16:41:26.273Z,36.93
2019-03-31T16:43:54.574Z,35.53
2019-03-31T16:46:22.861Z,38.07
2019-03-31T16:48:51.157Z,36.50
2019-03-31T16:51:19.436Z,37.93
2019-03-31T16:53:47.749Z,34.43
2019-03-31T16:56:16.023Z,33.03
2019-03-31T16:58:44.312Z,32.57
2019-03-31T17:01:12.600Z,35.93
2019-03-31T17:03:44.711Z,34.10
2019-03-31T17:06:13.823Z,31.57
2019-03-31T17:08:42.169Z,32.47
2019-03-31T17:11:10.469Z,32.30
2019-03-31T17:13:38.766Z,32.03
2019-03-31T17:16:07.043Z,30.60
2019-03-31T17:18:35.416Z,30.70
2019-03-31T17:21:03.706Z,31.07
2019-03-31T17:23:31.986Z,28.80
2019-03-31T17:26:00.263Z,28.17
2019-03-31T17:28:28.566Z,27.77
2019-03-31T17:30:56.831Z,29.53
2019-03-31T17:33:25.128Z,27.93
2019-03-31T17:35:53.406Z,27.97
2019-03-31T17:38:21.694Z,28.47
2019-03-31T17:40:49.984Z,27.37
2019-03-31T17:43:18.320Z,27.10
2019-03-31T17:45:46.572Z,24.80
2019-03-31T17:48:14.898Z,25.40
2019-03-31T17:50:43.180Z,24.97
2019-03-31T17:53:11.460Z,25.93
2019-03-31T17:55:39.746Z,24.67
2019-03-31T17:58:08.016Z,23.33
2019-03-31T18:00:36.327Z,25.03
2019-03-31T18:03:04.666Z,23.97
2019-03-31T18:05:32.953Z,21.63
2019-03-31T18:08:01.217Z,21.33
2019-03-31T18:10:29.511Z,21.53
2019-03-31T18:12:57.783Z,20.70
2019-03-31T18:15:26.090Z,20.67
2019-03-31T18:17:54.366Z,21.93
2019-03-31T18:20:22.647Z,18.43
2019-03-31T18:22:50.934Z,18.53
2019-03-31T18:25:19.211Z,18.43
2019-03-31T18:27:47.498Z,17.83
2019-03-31T18:30:16.121Z,19.13
2019-03-31T18:32:44.401Z,17.60
2019-03-31T18:35:12.686Z,17.60
2019-03-31T18:37:40.963Z,19.30
2019-03-31T18:40:09.643Z,17.77
2019-03-31T18:42:37.999Z,17.77
2019-03-31T18:45:07.033Z,18.03
2019-03-31T18:47:35.301Z,16.97
2019-03-31T18:50:05.512Z,18.20
2019-03-31T18:52:33.818Z,18.40
2019-03-31T18:55:03.749Z,19.13
2019-03-31T18:57:33.688Z,18.83
2019-03-31T19:00:03.611Z,17.03
2019-03-31T19:02:45.587Z,17.23
2019-03-31T19:05:33.488Z,18.60
2019-03-31T19:08:19.493Z,17.93
2019-03-31T19:11:05.615Z,16.63
2019-03-31T19:13:35.536Z,16.27
2019-03-31T19:16:11.247Z,16.83
2019-03-31T19:18:56.524Z,17.67
2019-03-31T19:21:26.461Z,19.07
2019-03-31T19:23:56.376Z,18.73
2019-03-31T19:26:26.290Z,18.90
2019-03-31T19:29:02.202Z,15.63
2019-03-31T19:31:41.315Z,18.00
2019-03-31T19:34:14.186Z,16.20
2019-03-31T19:37:00.288Z,16.53
2019-03-31T19:39:36.210Z,16.70
2019-03-31T19:42:11.896Z,15.97
2019-03-31T19:44:50.687Z,16.47
2019-03-31T19:47:29.368Z,17.13
2019-03-31T19:49:59.293Z,16.37
2019-03-31T19:52:37.957Z,17.10
2019-03-31T19:55:23.571Z,17.23
2019-03-31T19:58:11.721Z,17.07
2019-03-31T20:00:57.651Z,16.53
2019-03-31T20:03:39.547Z,16.47
2019-03-31T20:06:25.640Z,17.00
2019-03-31T20:09:11.751Z,18.77
2019-03-31T20:11:44.498Z,16.20
2019-03-31T20:14:14.430Z,17.00
2019-03-31T20:16:54.347Z,18.67
2019-03-31T20:19:40.416Z,17.70
2019-03-31T20:22:22.269Z,17.03
2019-03-31T20:25:00.852Z,16.40
2019-03-31T20:27:36.599Z,19.73
2019-03-31T20:30:07.582Z,17.87
2019-03-31T20:32:37.491Z,16.87
2019-03-31T20:35:08.575Z,17.07
2019-03-31T20:37:47.522Z,18.80
2019-03-31T20:40:20.216Z,18.50
2019-03-31T20:42:50.147Z,17.73
2019-03-31T20:45:18.456Z,17.00
2019-03-31T20:47:46.729Z,18.23
2019-03-31T20:50:16.358Z,17.40
2019-03-31T20:52:44.634Z,18.40
2019-03-31T20:55:16.679Z,20.33
2019-03-31T20:57:43.027Z,16.87
2019-03-31T21:00:11.534Z,18.00
2019-03-31T21:02:39.835Z,17.27
2019-03-31T21:05:08.264Z,18.90
2019-03-31T21:07:36.550Z,17.17
2019-03-31T21:10:06.493Z,19.57
2019-03-31T21:12:34.789Z,18.27
2019-03-31T21:15:03.087Z,17.13
2019-03-31T21:17:31.401Z,17.60
2019-03-31T21:19:59.745Z,17.30
2019-03-31T21:22:28.032Z,18.60
2019-03-31T21:24:56.303Z,19.00
2019-03-31T21:27:26.278Z,18.90
2019-03-31T21:29:54.567Z,19.60
2019-03-31T21:32:22.828Z,19.23
2019-03-31T21:34:51.201Z,19.20
2019-03-31T21:37:19.469Z,18.10
2019-03-31T21:39:47.772Z,18.70
2019-03-31T21:42:16.171Z,19.60
2019-03-31T21:44:44.458Z,18.00
2019-03-31T21:47:12.730Z,18.80
2019-03-31T21:49:41.036Z,18.97
2019-03-31T21:52:09.302Z,23.80
2019-03-31T21:54:37.649Z,19.33
2019-03-31T21:57:05.920Z,18.20
2019-03-31T21:59:34.212Z,19.50
2019-03-31T22:02:02.483Z,17.77
2019-03-31T22:04:30.780Z,19.67
2019-03-31T22:06:59.043Z,20.37
2019-03-31T22:09:27.333Z,20.30
2019-03-31T22:11:55.618Z,19.60
2019-03-31T22:14:23.893Z,18.50
2019-03-31T22:16:52.183Z,19.57
2019-03-31T22:19:20.473Z,19.67
2019-03-31T22:21:48.754Z,19.50
2019-03-31T22:24:17.026Z,21.43
2019-03-31T22:26:45.323Z,20.33
2019-03-31T22:29:13.598Z,19.53
2019-03-31T22:31:41.899Z,19.87
2019-03-31T22:34:10.221Z,20.20
2019-03-31T22:36:38.488Z,20.60
2019-03-31T22:39:07.935Z,19.57
2019-03-31T22:41:36.361Z,20.17
2019-03-31T22:44:04.913Z,23.10
2019-03-31T22:46:33.191Z,19.20
2019-03-31T22:49:01.469Z,19.63
2019-03-31T22:51:29.732Z,19.70
2019-03-31T22:53:58.006Z,21.30
2019-03-31T22:56:26.285Z,20.23
2019-03-31T22:58:54.551Z,21.60
2019-03-31T23:01:22.989Z,20.57
2019-03-31T23:03:51.257Z,20.10
2019-03-31T23:06:19.534Z,19.80
2019-03-31T23:08:47.805Z,19.27
2019-03-31T23:11:16.072Z,20.47
2019-03-31T23:13:44.354Z,20.53
2019-03-31T23:16:12.697Z,25.43
2019-03-31T23:18:41.046Z,23.77
2019-03-31T23:21:09.310Z,22.40
2019-03-31T23:23:37.581Z,20.50
2019-03-31T23:26:05.871Z,22.20
2019-03-31T23:28:35.811Z,24.20
2019-03-31T23:31:04.393Z,21.83
2019-03-31T23:33:32.669Z,22.40
2019-03-31T23:36:00.937Z,23.03
2019-03-31T23:38:29.203Z,22.80
2019-03-31T23:40:57.480Z,23.33
2019-03-31T23:43:25.805Z,24.13
2019-03-31T23:45:54.092Z,22.90
2019-03-31T23:48:22.431Z,23.30
2019-03-31T23:50:50.706Z,22.60
2019-03-31T23:53:18.979Z,23.10
2019-03-31T23:55:47.242Z,23.77
2019-03-31T23:58:15.535Z,23.30
